Airport View

Enter AWOS ICAO identifier for current METAR.

ex. KFNL

KPRX 251309Z AUTO 12004KT 9SM BKN001 OVC022 16/16 A3002 RMK AO2 PNO $

25 Sep 2020 13:27

Frequency: 119.675

Phone: 903-737-8784

Other Area AWOS: KHHW - KSLR - K4O4 - KF00

TAF KTXK 251140Z 2512/2612 VRB03KT 6SM BR BKN015 TEMPO 2512/2514 00000KT 4SM BR BKN010 FM251400 VRB03KT 6SM BR BKN015 FM251600 15005KT P6SM BKN025 FM251800 16005KT P6SM SCT035 FM252100 VRB03KT P6SM SCT250 FM260900 VRB03KT P6SM BKN025